createdAt,value
2019-03-15T00:01:03.045Z,0.93
2019-03-15T00:03:34.420Z,0.87
2019-03-15T00:06:04.721Z,0.80
2019-03-15T00:08:34.962Z,0.50
2019-03-15T00:11:05.795Z,0.60
2019-03-15T00:13:36.497Z,0.80
2019-03-15T00:16:06.773Z,0.70
2019-03-15T00:18:37.340Z,0.60
2019-03-15T00:21:07.986Z,0.60
2019-03-15T00:23:38.171Z,0.50
2019-03-15T00:26:08.479Z,0.77
2019-03-15T00:28:38.792Z,0.70
2019-03-15T00:31:09.112Z,0.70
2019-03-15T00:33:40.983Z,0.50
2019-03-15T00:36:11.675Z,0.70
2019-03-15T00:38:42.616Z,0.60
2019-03-15T00:41:13.163Z,0.60
2019-03-15T00:43:43.779Z,0.70
2019-03-15T00:46:14.003Z,0.60
2019-03-15T00:48:44.251Z,0.70
2019-03-15T00:51:14.919Z,0.57
2019-03-15T00:53:45.119Z,0.60
2019-03-15T00:56:15.426Z,0.70
2019-03-15T00:58:46.392Z,0.77
2019-03-15T01:01:17.280Z,0.63
2019-03-15T01:03:47.807Z,0.47
2019-03-15T01:06:18.612Z,0.50
2019-03-15T01:08:48.782Z,0.50
2019-03-15T01:11:19.059Z,0.60
2019-03-15T01:13:49.271Z,0.50
2019-03-15T01:16:19.468Z,0.60
2019-03-15T01:18:50.375Z,0.40
2019-03-15T01:21:20.636Z,0.50
2019-03-15T01:23:50.871Z,0.57
2019-03-15T01:26:21.347Z,0.60
2019-03-15T01:28:51.627Z,0.60
2019-03-15T01:31:21.832Z,0.50
2019-03-15T01:33:52.063Z,0.60
2019-03-15T01:36:22.732Z,0.50
2019-03-15T01:38:53.582Z,0.63
2019-03-15T01:41:24.579Z,0.55
2019-03-15T01:43:55.169Z,0.50
2019-03-15T01:46:25.428Z,0.53
2019-03-15T01:48:55.683Z,0.50
2019-03-15T01:51:25.956Z,0.67
2019-03-15T01:53:56.560Z,0.60
2019-03-15T01:56:26.818Z,0.60
2019-03-15T01:58:57.864Z,0.50
2019-03-15T02:01:28.717Z,0.40
2019-03-15T02:03:59.846Z,0.60
2019-03-15T02:06:30.047Z,0.60
2019-03-15T02:09:00.657Z,0.60
2019-03-15T02:11:31.188Z,0.67
2019-03-15T02:14:02.875Z,0.60
2019-03-15T02:16:34.448Z,0.60
2019-03-15T02:19:05.136Z,0.50
2019-03-15T02:21:35.733Z,0.67
2019-03-15T02:24:05.920Z,0.70
2019-03-15T02:26:36.481Z,0.53
2019-03-15T02:29:06.754Z,0.80
2019-03-15T02:31:38.124Z,0.67
2019-03-15T02:34:08.381Z,0.77
2019-03-15T02:36:39.971Z,0.63
2019-03-15T02:39:10.804Z,0.83
2019-03-15T02:41:41.085Z,0.90
2019-03-15T02:44:12.345Z,0.73
2019-03-15T02:46:43.317Z,0.73
2019-03-15T02:49:14.967Z,0.67
2019-03-15T02:51:46.249Z,0.60
2019-03-15T02:54:16.481Z,0.80
2019-03-15T02:56:46.724Z,0.87
2019-03-15T02:59:17.301Z,0.90
2019-03-15T03:01:48.135Z,0.83
2019-03-15T03:04:18.556Z,0.77
2019-03-15T03:06:49.232Z,1.00
2019-03-15T03:09:19.441Z,0.80
2019-03-15T03:11:50.462Z,0.70
2019-03-15T03:14:20.869Z,0.93
2019-03-15T03:19:37.500Z,0.80
2019-03-15T03:22:09.049Z,1.10
2019-03-15T03:24:39.688Z,0.77
2019-03-15T03:27:09.940Z,0.70
2019-03-15T03:29:40.249Z,0.93
2019-03-15T03:32:11.167Z,1.03
2019-03-15T03:34:42.643Z,0.90
2019-03-15T03:37:13.564Z,1.07
2019-03-15T03:39:44.757Z,1.07
2019-03-15T03:42:15.092Z,0.53
2019-03-15T03:44:45.663Z,0.87
2019-03-15T03:47:16.014Z,1.00
2019-03-15T03:49:46.927Z,0.97
2019-03-15T03:52:17.175Z,0.63
2019-03-15T03:54:47.790Z,0.87
2019-03-15T03:57:18.028Z,0.90
2019-03-15T03:59:48.621Z,0.77
2019-03-15T04:02:19.583Z,1.07
2019-03-15T04:04:50.106Z,0.80
2019-03-15T04:07:20.398Z,0.93
2019-03-15T04:09:50.650Z,0.67
2019-03-15T04:12:21.346Z,0.80
2019-03-15T04:14:51.671Z,0.50
2019-03-15T04:17:23.370Z,0.60
2019-03-15T04:19:54.661Z,0.60
2019-03-15T04:22:24.865Z,0.40
2019-03-15T04:24:55.052Z,0.63
2019-03-15T04:27:25.544Z,0.67
2019-03-15T04:29:56.151Z,0.83
2019-03-15T04:32:26.370Z,0.50
2019-03-15T04:34:56.646Z,0.77
2019-03-15T04:37:26.919Z,0.90
2019-03-15T04:39:57.823Z,1.03
2019-03-15T04:42:28.419Z,0.70
2019-03-15T04:44:58.982Z,0.80
2019-03-15T04:47:29.243Z,0.90
2019-03-15T04:50:00.435Z,0.60
2019-03-15T04:52:31.906Z,0.80
2019-03-15T04:55:02.108Z,0.80
2019-03-15T04:57:32.379Z,1.00
2019-03-15T05:00:02.969Z,0.97
2019-03-15T05:02:33.349Z,0.80
2019-03-15T05:05:03.579Z,1.00
2019-03-15T05:07:34.062Z,1.20
2019-03-15T05:10:05.122Z,0.73
2019-03-15T05:12:35.730Z,0.60
2019-03-15T05:15:06.187Z,1.00
2019-03-15T05:17:36.899Z,0.80
2019-03-15T05:20:08.198Z,0.70
2019-03-15T05:22:39.431Z,0.50
2019-03-15T05:25:10.311Z,0.70
2019-03-15T05:27:40.602Z,0.70
2019-03-15T05:30:11.756Z,0.97
2019-03-15T05:32:41.943Z,0.60
2019-03-15T05:35:12.165Z,0.90
2019-03-15T05:37:42.419Z,1.10
2019-03-15T05:40:13.414Z,0.90
2019-03-15T05:42:44.352Z,0.90
2019-03-15T05:45:14.675Z,0.93
2019-03-15T05:47:44.923Z,0.83
2019-03-15T05:50:15.561Z,0.70
2019-03-15T05:52:46.150Z,1.00
2019-03-15T05:55:16.783Z,0.73
2019-03-15T05:57:47.824Z,0.87
2019-03-15T06:00:18.350Z,1.07
2019-03-15T06:02:49.751Z,0.80
2019-03-15T06:05:20.131Z,0.80
2019-03-15T06:07:50.998Z,0.75
2019-03-15T06:10:21.305Z,0.77
2019-03-15T06:12:51.560Z,0.70
2019-03-15T06:15:21.852Z,0.60
2019-03-15T06:17:52.107Z,1.10
2019-03-15T06:20:22.707Z,1.00
2019-03-15T06:22:53.872Z,0.70
2019-03-15T06:25:24.493Z,1.10
2019-03-15T06:27:54.723Z,0.87
2019-03-15T06:30:25.027Z,1.03
2019-03-15T06:32:55.308Z,1.40
2019-03-15T06:35:25.819Z,1.23
2019-03-15T06:37:56.589Z,1.17
2019-03-15T06:40:27.451Z,1.47
2019-03-15T06:42:57.859Z,1.03
2019-03-15T06:45:28.159Z,1.07
2019-03-15T06:47:58.448Z,1.10
2019-03-15T06:50:29.173Z,1.10
2019-03-15T06:52:59.530Z,1.17
2019-03-15T06:55:29.832Z,0.73
2019-03-15T06:58:00.419Z,0.70
2019-03-15T07:00:31.066Z,0.90
2019-03-15T07:03:01.458Z,0.90
2019-03-15T07:05:31.639Z,0.90
2019-03-15T07:08:02.244Z,1.40
2019-03-15T07:10:33.046Z,1.80
2019-03-15T07:13:03.379Z,1.90
2019-03-15T07:15:34.101Z,4.60
2019-03-15T07:18:04.713Z,2.10
2019-03-15T07:20:35.299Z,1.93
2019-03-15T07:23:05.542Z,2.50
2019-03-15T07:25:35.802Z,1.80
2019-03-15T07:28:06.081Z,0.70
2019-03-15T07:30:36.348Z,0.60
2019-03-15T07:33:06.623Z,0.80
2019-03-15T07:35:36.884Z,0.50
2019-03-15T07:38:07.195Z,0.50
2019-03-15T07:40:37.794Z,0.60
2019-03-15T07:43:08.123Z,0.83
2019-03-15T07:45:38.751Z,0.50
2019-03-15T07:48:21.895Z,0.50
2019-03-15T07:50:41.557Z,0.37
2019-03-15T07:53:12.619Z,0.40
2019-03-15T07:55:42.848Z,0.30
2019-03-15T07:58:13.695Z,0.10
2019-03-15T08:00:44.181Z,0.20
2019-03-15T08:03:14.727Z,0.20
2019-03-15T08:05:45.009Z,0.10
2019-03-15T08:08:15.285Z,0.73
2019-03-15T08:10:45.514Z,0.40
2019-03-15T08:13:16.116Z,0.33
2019-03-15T08:15:46.364Z,0.30
2019-03-15T08:18:17.524Z,0.20
2019-03-15T08:20:48.007Z,0.10
2019-03-15T08:23:18.216Z,0.40
2019-03-15T08:25:50.479Z,0.40
2019-03-15T08:28:20.714Z,0.30
2019-03-15T08:30:50.967Z,0.20
2019-03-15T08:33:21.295Z,0.30
2019-03-15T08:35:51.655Z,0.20
2019-03-15T08:38:22.124Z,0.20
2019-03-15T08:40:53.072Z,0.20
2019-03-15T08:43:23.382Z,0.40
2019-03-15T08:45:53.722Z,0.77
2019-03-15T08:48:24.020Z,1.47
2019-03-15T08:50:54.332Z,0.30
2019-03-15T08:53:24.599Z,0.70
2019-03-15T08:55:54.889Z,0.20
2019-03-15T08:58:27.256Z,0.40
2019-03-15T09:00:58.391Z,0.30
2019-03-15T09:03:28.954Z,0.20
2019-03-15T09:05:59.596Z,0.30
2019-03-15T09:08:30.227Z,0.30
2019-03-15T09:11:00.692Z,0.30
2019-03-15T09:13:31.014Z,0.20
2019-03-15T09:16:01.265Z,0.30
2019-03-15T09:18:31.856Z,0.30
2019-03-15T09:21:02.459Z,0.30
2019-03-15T09:23:34.728Z,0.30
2019-03-15T09:26:05.522Z,0.20
2019-03-15T09:28:36.205Z,0.30
2019-03-15T09:31:07.684Z,0.30
2019-03-15T09:33:38.388Z,0.20
2019-03-15T09:36:09.261Z,0.20
2019-03-15T09:38:40.472Z,0.20
2019-03-15T09:41:11.099Z,0.20
2019-03-15T09:43:45.096Z,0.20
2019-03-15T09:46:13.579Z,0.17
2019-03-15T09:48:44.226Z,0.20
2019-03-15T09:51:14.547Z,0.20
2019-03-15T09:53:45.379Z,0.20
2019-03-15T09:56:15.929Z,0.20
2019-03-15T09:58:46.680Z,0.20
2019-03-15T10:01:33.695Z,0.10
2019-03-15T10:03:49.459Z,0.10
2019-03-15T10:06:20.755Z,0.20
2019-03-15T10:08:51.074Z,0.20
2019-03-15T10:11:21.660Z,0.33
2019-03-15T10:13:53.617Z,0.20
2019-03-15T10:16:24.360Z,0.20
2019-03-15T10:18:54.879Z,0.20
2019-03-15T10:21:25.420Z,0.20
2019-03-15T10:23:56.066Z,0.30
2019-03-15T10:26:26.724Z,0.20
2019-03-15T10:28:57.004Z,0.30
2019-03-15T10:31:28.120Z,0.30
2019-03-15T10:33:58.495Z,0.30
2019-03-15T10:36:29.138Z,0.30
2019-03-15T10:38:59.838Z,0.40
2019-03-15T10:41:30.574Z,0.30
2019-03-15T10:44:04.099Z,0.43
2019-03-15T10:46:34.288Z,0.30
2019-03-15T10:49:04.566Z,0.20
2019-03-15T10:51:34.768Z,0.30
2019-03-15T10:54:05.059Z,0.20
2019-03-15T10:56:35.668Z,0.50
2019-03-15T10:59:06.492Z,0.50
2019-03-15T11:01:37.143Z,0.40
2019-03-15T11:04:07.898Z,0.40
2019-03-15T11:06:38.232Z,0.30
2019-03-15T11:09:08.649Z,0.23
2019-03-15T11:11:38.937Z,0.50
2019-03-15T11:14:09.195Z,0.20
2019-03-15T11:16:39.620Z,0.30
2019-03-15T11:19:10.467Z,0.20
2019-03-15T11:21:41.435Z,0.20
2019-03-15T11:24:11.720Z,0.30
2019-03-15T11:26:42.373Z,0.40
2019-03-15T11:29:12.707Z,0.30
2019-03-15T11:31:44.665Z,0.63
2019-03-15T11:34:15.816Z,0.40
2019-03-15T11:36:57.836Z,0.30
2019-03-15T11:39:18.207Z,0.30
2019-03-15T11:41:49.837Z,0.30
2019-03-15T11:44:20.200Z,0.50
2019-03-15T11:46:50.452Z,0.30
2019-03-15T11:49:20.811Z,0.23
2019-03-15T11:51:51.104Z,0.30
2019-03-15T11:54:21.383Z,0.20
2019-03-15T11:56:51.994Z,0.20
2019-03-15T11:59:22.524Z,0.20
2019-03-15T12:02:03.915Z,0.43
2019-03-15T12:04:26.467Z,0.30
2019-03-15T12:06:56.713Z,0.30
2019-03-15T12:09:27.001Z,0.30
2019-03-15T12:11:57.832Z,0.20
2019-03-15T12:14:40.523Z,0.30
2019-03-15T12:17:01.942Z,0.20
2019-03-15T12:19:32.207Z,0.17
2019-03-15T12:22:06.491Z,0.23
2019-03-15T12:24:34.463Z,0.30
2019-03-15T12:27:05.763Z,0.20
2019-03-15T12:29:36.417Z,0.30
2019-03-15T12:32:07.687Z,0.23
2019-03-15T12:34:38.304Z,0.40
2019-03-15T12:37:08.688Z,0.37
2019-03-15T12:39:40.261Z,0.30
2019-03-15T12:42:10.836Z,0.20
2019-03-15T12:44:41.165Z,0.30
2019-03-15T12:47:11.416Z,0.30
2019-03-15T12:49:41.714Z,0.23
2019-03-15T12:52:13.272Z,0.40
2019-03-15T12:54:43.576Z,0.20
2019-03-15T12:57:13.863Z,0.30
2019-03-15T12:59:44.457Z,0.30
2019-03-15T13:02:15.273Z,0.20
2019-03-15T13:04:45.468Z,0.33
2019-03-15T13:07:15.760Z,0.40
2019-03-15T13:09:46.053Z,0.50
2019-03-15T13:12:16.344Z,0.30
2019-03-15T13:14:46.541Z,0.53
2019-03-15T13:17:16.983Z,0.30
2019-03-15T13:19:55.200Z,0.33
2019-03-15T13:22:20.124Z,0.50
2019-03-15T13:24:50.308Z,0.40
2019-03-15T13:27:20.557Z,0.40
2019-03-15T13:29:51.036Z,0.30
2019-03-15T13:32:21.393Z,0.50
2019-03-15T13:34:51.713Z,0.43
2019-03-15T13:37:21.981Z,0.50
2019-03-15T13:39:52.612Z,0.40
2019-03-15T13:42:24.017Z,0.40
2019-03-15T13:44:54.251Z,0.50
2019-03-15T13:47:24.895Z,1.10
2019-03-15T13:49:55.088Z,1.07
2019-03-15T13:52:25.342Z,0.50
2019-03-15T13:54:55.762Z,0.50
2019-03-15T13:57:26.040Z,0.50
2019-03-15T13:59:56.853Z,0.60
2019-03-15T14:02:28.090Z,0.50
2019-03-15T14:04:58.395Z,0.40
2019-03-15T14:07:28.645Z,0.43
2019-03-15T14:09:58.939Z,0.50
2019-03-15T14:12:29.315Z,0.60
2019-03-15T14:14:59.908Z,0.60
2019-03-15T14:17:30.270Z,0.50
2019-03-15T14:20:00.768Z,0.33
2019-03-15T14:22:30.980Z,0.60
2019-03-15T14:25:02.032Z,0.70
2019-03-15T14:27:37.602Z,0.70
2019-03-15T14:30:04.957Z,0.60
2019-03-15T14:32:35.383Z,0.50
2019-03-15T14:35:05.672Z,0.40
2019-03-15T14:37:37.718Z,0.50
2019-03-15T14:40:08.543Z,0.30
2019-03-15T14:42:38.911Z,0.40
2019-03-15T14:45:09.496Z,0.57
2019-03-15T14:47:39.824Z,0.50
2019-03-15T14:50:10.670Z,0.47
2019-03-15T14:52:40.911Z,0.40
2019-03-15T14:55:11.800Z,0.40
2019-03-15T14:57:52.054Z,0.47
2019-03-15T15:00:14.380Z,0.60
2019-03-15T15:02:45.306Z,0.67
2019-03-15T15:05:16.448Z,0.60
2019-03-15T15:07:46.784Z,0.53
2019-03-15T15:10:17.276Z,0.70
2019-03-15T15:12:47.537Z,0.50
2019-03-15T15:15:17.781Z,1.20
2019-03-15T15:17:48.376Z,0.60
2019-03-15T15:20:18.634Z,0.60
2019-03-15T15:22:49.256Z,0.40
2019-03-15T15:25:19.763Z,0.77
2019-03-15T15:28:03.533Z,0.53
2019-03-15T15:30:22.284Z,0.63
2019-03-15T15:32:52.572Z,0.70
2019-03-15T15:35:22.848Z,0.60
2019-03-15T15:37:53.264Z,0.50
2019-03-15T15:40:23.519Z,0.50
2019-03-15T15:42:54.504Z,0.57
2019-03-15T15:45:25.839Z,0.50
2019-03-15T15:47:56.356Z,0.40
2019-03-15T15:50:26.638Z,0.60
2019-03-15T15:52:57.337Z,0.60
2019-03-15T15:55:27.918Z,0.53
2019-03-15T15:57:58.173Z,0.73
2019-03-15T16:00:28.432Z,0.60
2019-03-15T16:02:59.347Z,0.40
2019-03-15T16:05:29.599Z,0.57
2019-03-15T16:08:00.506Z,0.50
2019-03-15T16:10:31.792Z,0.50
2019-03-15T16:13:02.874Z,0.43
2019-03-15T16:15:33.971Z,0.53
2019-03-15T16:18:04.265Z,0.50
2019-03-15T16:20:35.301Z,0.60
2019-03-15T16:23:05.538Z,0.70
2019-03-15T16:25:35.817Z,0.47
2019-03-15T16:28:06.693Z,0.60
2019-03-15T16:30:36.955Z,0.60
2019-03-15T16:33:07.846Z,0.60
2019-03-15T16:35:38.418Z,0.60
2019-03-15T16:38:08.714Z,0.50
2019-03-15T16:40:38.962Z,0.60
2019-03-15T16:43:09.185Z,0.63
2019-03-15T16:45:39.781Z,0.63
2019-03-15T16:48:10.112Z,0.50
2019-03-15T16:50:40.708Z,0.50
2019-03-15T16:53:11.468Z,0.60
2019-03-15T16:55:41.751Z,0.77
2019-03-15T16:58:11.948Z,0.90
2019-03-15T17:00:42.172Z,0.50
2019-03-15T17:03:12.460Z,0.60
2019-03-15T17:05:43.066Z,0.57
2019-03-15T17:08:13.651Z,0.50
2019-03-15T17:10:43.880Z,0.60
2019-03-15T17:13:14.196Z,0.40
2019-03-15T17:15:44.652Z,1.40
2019-03-15T17:18:15.536Z,0.70
2019-03-15T17:20:46.692Z,0.47
2019-03-15T17:23:16.931Z,0.80
2019-03-15T17:25:48.184Z,0.77
2019-03-15T17:28:18.780Z,0.60
2019-03-15T17:30:48.981Z,0.63
2019-03-15T17:33:19.524Z,0.50
2019-03-15T17:35:50.076Z,0.50
2019-03-15T17:38:20.377Z,0.53
2019-03-15T17:40:50.583Z,0.40
2019-03-15T17:43:20.932Z,0.50
2019-03-15T17:45:51.563Z,0.50
2019-03-15T17:48:22.503Z,0.63
2019-03-15T17:50:53.099Z,0.50
2019-03-15T17:53:23.668Z,0.67
2019-03-15T17:55:54.069Z,0.50
2019-03-15T17:58:25.983Z,0.57
2019-03-15T18:00:56.688Z,0.70
2019-03-15T18:03:26.917Z,0.50
2019-03-15T18:05:57.542Z,0.40
2019-03-15T18:08:27.889Z,0.60
2019-03-15T18:10:58.145Z,0.50
2019-03-15T18:13:28.454Z,1.83
2019-03-15T18:15:59.029Z,0.50
2019-03-15T18:18:29.581Z,0.50
2019-03-15T18:21:00.732Z,0.50
2019-03-15T18:23:31.768Z,0.60
2019-03-15T18:26:02.314Z,0.57
2019-03-15T18:28:32.654Z,0.57
2019-03-15T18:31:03.455Z,0.70
2019-03-15T18:33:34.153Z,0.70
2019-03-15T18:36:04.330Z,0.93
2019-03-15T18:38:34.624Z,1.30
2019-03-15T18:41:05.136Z,0.73
2019-03-15T18:43:36.001Z,0.80
2019-03-15T18:46:06.578Z,1.13
2019-03-15T18:48:37.172Z,0.70
2019-03-15T18:51:08.549Z,0.70
2019-03-15T18:53:38.871Z,0.60
2019-03-15T18:56:09.098Z,0.63
2019-03-15T18:58:39.364Z,1.03
2019-03-15T19:01:10.320Z,0.50
2019-03-15T19:03:40.644Z,0.70
2019-03-15T19:06:10.981Z,0.63
2019-03-15T19:08:41.733Z,0.40
2019-03-15T19:11:12.049Z,0.47
2019-03-15T19:13:42.475Z,0.40
2019-03-15T19:16:19.885Z,0.60
2019-03-15T19:18:45.104Z,0.47
2019-03-15T19:21:17.697Z,0.67
2019-03-15T19:23:47.934Z,0.50
2019-03-15T19:26:18.230Z,0.40
2019-03-15T19:28:48.523Z,0.40
2019-03-15T19:31:18.786Z,0.70
2019-03-15T19:33:49.460Z,0.87
2019-03-15T19:36:19.673Z,0.47
2019-03-15T19:38:50.519Z,0.30
2019-03-15T19:41:20.892Z,0.50
2019-03-15T19:43:52.284Z,0.50
2019-03-15T19:46:22.556Z,0.40
2019-03-15T19:48:52.817Z,0.40
2019-03-15T19:51:23.373Z,0.40
2019-03-15T19:53:53.653Z,0.40
2019-03-15T19:56:25.074Z,0.50
2019-03-15T19:58:56.396Z,0.40
2019-03-15T20:01:28.945Z,0.40
2019-03-15T20:03:59.001Z,0.50
2019-03-15T20:06:29.375Z,0.50
2019-03-15T20:08:59.627Z,0.40
2019-03-15T20:11:29.877Z,0.50
2019-03-15T20:14:00.213Z,0.60
2019-03-15T20:16:30.657Z,0.50
2019-03-15T20:19:01.408Z,0.50
2019-03-15T20:21:32.163Z,0.50
2019-03-15T20:24:02.478Z,0.60
2019-03-15T20:26:32.795Z,0.50
2019-03-15T20:29:04.180Z,0.60
2019-03-15T20:31:34.668Z,0.60
2019-03-15T20:34:05.119Z,0.40
2019-03-15T20:36:35.428Z,0.60
2019-03-15T20:39:07.968Z,0.60
2019-03-15T20:41:38.448Z,0.80
2019-03-15T20:44:08.760Z,0.50
2019-03-15T20:46:39.318Z,0.53
2019-03-15T20:49:10.191Z,0.70
2019-03-15T20:51:40.900Z,0.50
2019-03-15T20:54:11.227Z,0.60
2019-03-15T20:56:41.647Z,0.70
2019-03-15T20:59:12.269Z,0.60
2019-03-15T21:01:42.910Z,0.60
2019-03-15T21:04:13.648Z,0.67
2019-03-15T21:06:43.952Z,1.00
2019-03-15T21:09:14.326Z,0.60
2019-03-15T21:11:44.596Z,0.70
2019-03-15T21:14:15.002Z,0.57
2019-03-15T21:16:45.573Z,0.60
2019-03-15T21:19:16.207Z,0.80
2019-03-15T21:21:46.516Z,0.50
2019-03-15T21:24:17.206Z,0.70
2019-03-15T21:26:47.498Z,0.50
2019-03-15T21:29:18.441Z,0.77
2019-03-15T21:31:48.735Z,0.80
2019-03-15T21:34:19.019Z,0.70
2019-03-15T21:36:49.387Z,0.50
2019-03-15T21:39:19.973Z,0.60
2019-03-15T21:41:50.503Z,0.60
2019-03-15T21:44:21.113Z,0.80
2019-03-15T21:46:51.425Z,0.70
2019-03-15T21:49:21.780Z,0.67
2019-03-15T21:51:52.028Z,0.70
2019-03-15T21:54:22.336Z,0.53
2019-03-15T21:56:52.590Z,0.70
2019-03-15T21:59:23.252Z,0.70
2019-03-15T22:01:53.916Z,0.80
2019-03-15T22:04:24.281Z,0.60
2019-03-15T22:06:54.611Z,0.63
2019-03-15T22:09:24.858Z,0.70
2019-03-15T22:11:55.157Z,0.53
2019-03-15T22:14:25.557Z,0.60
2019-03-15T22:16:56.112Z,0.60
2019-03-15T22:19:26.381Z,0.70
2019-03-15T22:21:57.706Z,0.40
2019-03-15T22:24:28.252Z,0.40
2019-03-15T22:26:58.537Z,0.60
2019-03-15T22:29:28.797Z,0.53
2019-03-15T22:31:59.509Z,0.50
2019-03-15T22:34:29.753Z,0.50
2019-03-15T22:37:00.046Z,0.50
2019-03-15T22:39:30.904Z,0.80
2019-03-15T22:42:01.286Z,0.30
2019-03-15T22:44:31.488Z,0.60
2019-03-15T22:47:02.153Z,0.40
2019-03-15T22:49:32.472Z,0.50
2019-03-15T22:52:02.773Z,0.30
2019-03-15T22:54:33.454Z,0.40
2019-03-15T22:57:03.692Z,0.40
2019-03-15T22:59:34.325Z,0.40
2019-03-15T23:02:05.783Z,0.40
2019-03-15T23:04:36.405Z,0.40
2019-03-15T23:07:07.727Z,0.50
2019-03-15T23:09:38.257Z,0.40
2019-03-15T23:12:08.630Z,0.40
2019-03-15T23:14:39.380Z,0.37
2019-03-15T23:17:09.925Z,0.20
2019-03-15T23:19:41.176Z,0.30
2019-03-15T23:22:12.065Z,0.33
2019-03-15T23:24:43.592Z,0.40
2019-03-15T23:27:13.833Z,0.27
2019-03-15T23:29:44.307Z,0.50
2019-03-15T23:32:15.616Z,0.40
2019-03-15T23:34:46.273Z,0.50
2019-03-15T23:37:16.505Z,0.20
2019-03-15T23:39:47.779Z,0.30
2019-03-15T23:42:18.026Z,0.30
2019-03-15T23:44:48.563Z,0.37
2019-03-15T23:47:18.882Z,0.30
2019-03-15T23:49:49.527Z,0.40
2019-03-15T23:52:20.220Z,0.30
2019-03-15T23:54:50.492Z,0.30
2019-03-15T23:57:20.832Z,0.30
2019-03-15T23:59:51.434Z,0.50
